createdAt,value
2018-01-13T00:00:49.743Z,37.80
2018-01-13T00:03:17.175Z,37.90
2018-01-13T00:05:44.594Z,38.30
2018-01-13T00:08:12.027Z,39.70
2018-01-13T00:10:39.442Z,38.90
2018-01-13T00:13:06.879Z,39.20
2018-01-13T00:15:34.294Z,39.30
2018-01-13T00:18:01.730Z,39.80
2018-01-13T00:20:29.154Z,40.00
2018-01-13T00:22:57.385Z,39.60
2018-01-13T00:25:24.803Z,39.60
2018-01-13T00:27:52.223Z,39.90
2018-01-13T00:30:19.659Z,38.80
2018-01-13T00:32:47.087Z,39.20
2018-01-13T00:35:14.564Z,38.40
2018-01-13T00:37:41.988Z,38.50
2018-01-13T00:40:09.422Z,37.90
2018-01-13T00:42:37.612Z,38.90
2018-01-13T00:45:05.048Z,38.80
2018-01-13T00:47:32.479Z,39.10
2018-01-13T00:49:59.911Z,38.70
2018-01-13T00:52:27.335Z,39.00
2018-01-13T00:54:54.754Z,39.40
2018-01-13T00:57:22.291Z,38.60
2018-01-13T00:59:49.720Z,38.40
2018-01-13T01:02:17.170Z,38.00
2018-01-13T01:04:44.591Z,38.20
2018-01-13T01:07:12.798Z,37.90
2018-01-13T01:09:40.230Z,37.80
2018-01-13T01:12:07.664Z,37.60
2018-01-13T01:14:35.091Z,38.00
2018-01-13T01:17:02.519Z,37.80
2018-01-13T01:19:29.938Z,37.40
2018-01-13T01:21:57.379Z,38.50
2018-01-13T01:24:24.803Z,38.90
2018-01-13T01:26:52.227Z,39.30
2018-01-13T01:29:19.673Z,38.80
2018-01-13T01:31:47.095Z,38.50
2018-01-13T01:34:14.530Z,39.10
2018-01-13T01:36:41.961Z,38.70
2018-01-13T01:39:09.395Z,39.40
2018-01-13T01:41:37.107Z,39.60
2018-01-13T01:44:05.546Z,39.10
2018-01-13T01:46:32.972Z,39.00
2018-01-13T01:49:00.571Z,39.00
2018-01-13T01:51:27.999Z,39.20
2018-01-13T01:53:55.418Z,39.50
2018-01-13T01:56:22.850Z,39.30
2018-01-13T01:58:50.276Z,39.20
2018-01-13T02:01:17.707Z,37.50
2018-01-13T02:03:45.138Z,38.00
2018-01-13T02:06:12.574Z,38.20
2018-01-13T02:08:39.995Z,38.00
2018-01-13T02:11:08.212Z,38.60
2018-01-13T02:13:35.630Z,38.50
2018-01-13T02:16:03.071Z,38.70
2018-01-13T02:18:30.494Z,38.70
2018-01-13T02:20:57.923Z,38.70
2018-01-13T02:23:25.364Z,39.10
2018-01-13T02:25:52.803Z,38.60
2018-01-13T02:28:21.006Z,38.60
2018-01-13T02:30:48.431Z,38.50
2018-01-13T02:33:15.871Z,38.50
2018-01-13T02:35:43.302Z,38.70
2018-01-13T02:38:10.742Z,38.00
2018-01-13T02:40:38.172Z,38.00
2018-01-13T02:43:05.603Z,38.20
2018-01-13T02:45:33.795Z,36.60
2018-01-13T02:48:01.226Z,36.60
2018-01-13T02:50:28.659Z,37.20
2018-01-13T02:52:56.101Z,37.00
2018-01-13T02:55:23.522Z,37.40
2018-01-13T02:57:50.951Z,36.50
2018-01-13T03:00:18.390Z,36.80
2018-01-13T03:02:45.817Z,37.10
2018-01-13T03:05:13.275Z,37.60
2018-01-13T03:07:40.694Z,37.90
2018-01-13T03:10:08.126Z,37.80
2018-01-13T03:12:35.553Z,38.00
2018-01-13T03:15:02.995Z,37.00
2018-01-13T03:17:30.423Z,37.00
2018-01-13T03:19:58.218Z,37.20
2018-01-13T03:22:25.647Z,37.90
2018-01-13T03:24:53.070Z,37.60
2018-01-13T03:27:20.502Z,37.60
2018-01-13T03:29:47.942Z,37.50
2018-01-13T03:32:15.370Z,37.90
2018-01-13T03:34:42.794Z,36.90
2018-01-13T03:37:10.230Z,36.30
2018-01-13T03:39:37.660Z,36.10
2018-01-13T03:42:05.095Z,36.90
2018-01-13T03:44:32.686Z,36.80
2018-01-13T03:47:00.148Z,37.10
2018-01-13T03:49:27.570Z,37.30
2018-01-13T03:51:54.999Z,37.40
2018-01-13T03:54:23.202Z,37.90
2018-01-13T03:56:50.630Z,37.80
2018-01-13T03:59:18.062Z,37.80
2018-01-13T04:01:45.486Z,37.80
2018-01-13T04:04:12.924Z,38.50
2018-01-13T04:06:40.346Z,36.20
2018-01-13T04:09:08.551Z,37.40
2018-01-13T04:11:35.994Z,37.30
2018-01-13T04:14:03.426Z,37.40
2018-01-13T04:16:30.850Z,37.80
2018-01-13T04:18:58.450Z,37.80
2018-01-13T04:21:25.875Z,37.40
2018-01-13T04:23:53.295Z,37.50
2018-01-13T04:26:20.727Z,37.80
2018-01-13T04:28:48.155Z,37.80
2018-01-13T04:31:15.591Z,38.10
2018-01-13T04:33:43.024Z,38.20
2018-01-13T04:36:10.459Z,38.40
2018-01-13T04:38:37.887Z,38.20
2018-01-13T04:41:05.323Z,37.90
2018-01-13T04:43:32.747Z,37.80
2018-01-13T04:46:00.182Z,37.50
2018-01-13T04:48:27.606Z,37.90
2018-01-13T04:50:55.059Z,37.90
2018-01-13T04:53:22.483Z,38.30
2018-01-13T04:55:49.907Z,38.00
2018-01-13T04:58:17.347Z,37.60
2018-01-13T05:00:44.766Z,37.60
2018-01-13T05:03:12.210Z,37.60
2018-01-13T05:05:39.634Z,37.80
2018-01-13T05:08:07.077Z,37.90
2018-01-13T05:10:34.539Z,38.10
2018-01-13T05:13:02.078Z,38.10
2018-01-13T05:15:29.511Z,38.60
2018-01-13T05:17:56.946Z,38.60
2018-01-13T05:20:24.374Z,38.90
2018-01-13T05:22:51.822Z,38.80
2018-01-13T05:25:19.243Z,38.60
2018-01-13T05:27:46.694Z,38.70
2018-01-13T05:30:14.108Z,39.00
2018-01-13T05:32:41.547Z,39.30
2018-01-13T05:35:09.113Z,39.10
2018-01-13T05:37:36.543Z,39.00
2018-01-13T05:40:04.743Z,38.90
2018-01-13T05:42:32.175Z,38.90
2018-01-13T05:44:59.602Z,38.80
2018-01-13T05:47:27.051Z,38.70
2018-01-13T05:49:54.475Z,38.70
2018-01-13T05:52:21.942Z,38.50
2018-01-13T05:54:49.379Z,38.30
2018-01-13T05:57:16.822Z,38.40
2018-01-13T05:59:44.273Z,38.00
2018-01-13T06:02:11.866Z,38.00
2018-01-13T06:04:39.302Z,38.00
2018-01-13T06:07:06.726Z,37.70
2018-01-13T06:09:34.165Z,37.70
2018-01-13T06:12:01.587Z,37.40
2018-01-13T06:14:29.055Z,37.00
2018-01-13T06:16:56.607Z,37.10
2018-01-13T06:19:24.047Z,37.00
2018-01-13T06:21:51.467Z,36.80
2018-01-13T06:24:18.902Z,38.00
2018-01-13T06:26:46.334Z,38.00
2018-01-13T06:29:13.762Z,38.90
2018-01-13T06:31:41.186Z,39.30
2018-01-13T06:34:09.390Z,38.70
2018-01-13T06:36:36.863Z,38.70
2018-01-13T06:39:04.315Z,38.50
2018-01-13T06:41:31.738Z,38.90
2018-01-13T06:43:59.170Z,38.90
2018-01-13T06:46:26.603Z,38.50
2018-01-13T06:48:54.027Z,38.40
2018-01-13T06:51:21.463Z,38.30
2018-01-13T06:53:48.886Z,39.10
2018-01-13T06:56:16.318Z,38.60
2018-01-13T06:58:43.742Z,39.10
2018-01-13T07:01:11.174Z,39.20
2018-01-13T07:03:38.598Z,39.10
2018-01-13T07:06:06.035Z,39.10
2018-01-13T07:08:33.571Z,39.30
2018-01-13T07:11:01.007Z,39.00
2018-01-13T07:13:28.430Z,38.70
2018-01-13T07:15:55.870Z,39.50
2018-01-13T07:18:23.303Z,38.80
2018-01-13T07:20:50.735Z,38.70
2018-01-13T07:23:18.167Z,38.80
2018-01-13T07:25:45.603Z,39.20
2018-01-13T07:28:13.031Z,39.50
2018-01-13T07:30:40.467Z,39.80
2018-01-13T07:33:07.889Z,38.80
2018-01-13T07:35:35.315Z,38.00
2018-01-13T07:38:02.818Z,38.00
2018-01-13T07:40:31.009Z,38.00
2018-01-13T07:42:58.450Z,37.80
2018-01-13T07:45:25.874Z,38.40
2018-01-13T07:47:53.314Z,38.50
2018-01-13T07:50:20.734Z,38.30
2018-01-13T07:52:48.170Z,38.00
2018-01-13T07:55:16.362Z,37.80
2018-01-13T07:57:43.803Z,37.70
2018-01-13T08:00:11.226Z,38.00
2018-01-13T08:02:38.666Z,37.70
2018-01-13T08:05:06.090Z,38.00
2018-01-13T08:07:33.531Z,37.60
2018-01-13T08:10:00.950Z,37.40
2018-01-13T08:12:28.386Z,37.30
2018-01-13T08:14:55.819Z,37.40
2018-01-13T08:17:23.259Z,37.50
2018-01-13T08:19:50.684Z,37.50
2018-01-13T08:22:18.127Z,37.60
2018-01-13T08:24:45.552Z,37.70
2018-01-13T08:27:13.004Z,38.50
2018-01-13T08:29:40.439Z,38.20
2018-01-13T08:32:07.858Z,38.20
2018-01-13T08:34:36.067Z,37.50
2018-01-13T08:37:04.263Z,37.10
2018-01-13T08:39:31.701Z,37.00
2018-01-13T08:41:59.127Z,36.70
2018-01-13T08:44:27.330Z,36.70
2018-01-13T08:46:54.758Z,36.60
2018-01-13T08:49:22.194Z,36.90
2018-01-13T08:51:49.624Z,37.00
2018-01-13T08:54:17.062Z,36.80
2018-01-13T08:56:44.495Z,36.20
2018-01-13T08:59:12.690Z,35.50
2018-01-13T09:02:00.822Z,35.50
2018-01-13T09:04:28.390Z,35.50
2018-01-13T09:06:55.822Z,34.50
2018-01-13T09:09:24.018Z,34.70
2018-01-13T09:11:51.447Z,34.60
2018-01-13T09:14:18.886Z,35.10
2018-01-13T09:16:46.306Z,35.50
2018-01-13T09:19:13.752Z,35.70
2018-01-13T09:21:41.172Z,36.10
2018-01-13T09:24:09.374Z,36.60
2018-01-13T09:26:37.058Z,36.60
2018-01-13T09:29:04.516Z,36.30
2018-01-13T09:31:31.941Z,36.10
2018-01-13T09:33:59.358Z,35.80
2018-01-13T09:36:27.565Z,35.90
2018-01-13T09:38:54.986Z,35.70
2018-01-13T09:41:22.430Z,35.90
2018-01-13T09:43:49.861Z,36.00
2018-01-13T09:46:17.298Z,36.00
2018-01-13T09:48:44.722Z,35.60
2018-01-13T09:51:12.941Z,34.70
2018-01-13T09:53:40.367Z,34.50
2018-01-13T09:56:07.806Z,34.40
2018-01-13T09:58:35.226Z,34.40
2018-01-13T10:01:02.679Z,34.50
2018-01-13T10:03:30.115Z,34.30
2018-01-13T10:05:57.550Z,34.20
2018-01-13T10:08:24.978Z,34.30
2018-01-13T10:10:52.416Z,34.10
2018-01-13T10:13:19.843Z,34.00
2018-01-13T10:15:47.415Z,33.50
2018-01-13T10:18:14.846Z,33.40
2018-01-13T10:20:42.278Z,32.80
2018-01-13T10:23:09.707Z,32.30
2018-01-13T10:25:37.135Z,32.10
2018-01-13T10:28:04.566Z,32.90
2018-01-13T10:30:31.983Z,32.10
2018-01-13T10:32:59.410Z,31.70
2018-01-13T10:35:26.835Z,31.60
2018-01-13T10:37:54.271Z,31.60
2018-01-13T10:40:21.703Z,31.50
2018-01-13T10:42:49.126Z,31.20
2018-01-13T10:45:16.563Z,30.80
2018-01-13T10:47:44.003Z,30.80
2018-01-13T10:50:12.306Z,30.90
2018-01-13T10:52:39.739Z,30.20
2018-01-13T10:55:07.163Z,30.40
2018-01-13T10:57:34.594Z,29.30
2018-01-13T11:00:02.018Z,29.50
2018-01-13T11:02:29.457Z,29.50
2018-01-13T11:04:56.874Z,28.70
2018-01-13T11:07:24.311Z,28.40
2018-01-13T11:09:51.736Z,28.50
2018-01-13T11:12:19.163Z,28.00
2018-01-13T11:14:47.350Z,28.20
2018-01-13T11:17:14.787Z,28.10
2018-01-13T11:19:42.217Z,28.50
2018-01-13T11:22:09.638Z,28.90
2018-01-13T11:24:37.069Z,29.20
2018-01-13T11:27:05.246Z,29.50
2018-01-13T11:29:32.674Z,29.50
2018-01-13T11:32:00.103Z,29.50
2018-01-13T11:34:27.535Z,29.80
2018-01-13T11:36:54.958Z,29.60
2018-01-13T11:39:22.395Z,29.40
2018-01-13T11:41:50.007Z,29.20
2018-01-13T11:44:17.443Z,29.50
2018-01-13T11:46:44.858Z,29.60
2018-01-13T11:49:13.065Z,29.30
2018-01-13T11:51:40.483Z,29.30
2018-01-13T11:54:07.918Z,28.80
2018-01-13T11:56:35.342Z,29.20
2018-01-13T11:59:02.770Z,29.30
2018-01-13T12:01:30.190Z,29.30
2018-01-13T12:03:57.624Z,29.50
2018-01-13T12:06:25.046Z,29.60
2018-01-13T12:08:53.233Z,29.90
2018-01-13T12:11:20.662Z,29.80
2018-01-13T12:13:48.078Z,30.00
2018-01-13T12:16:15.516Z,30.20
2018-01-13T12:18:42.938Z,30.40
2018-01-13T12:21:11.139Z,31.10
2018-01-13T12:23:38.558Z,31.10
2018-01-13T12:26:06.071Z,30.90
2018-01-13T12:28:33.485Z,31.00
2018-01-13T12:31:00.918Z,30.90
2018-01-13T12:33:28.338Z,31.00
2018-01-13T12:35:55.774Z,31.00
2018-01-13T12:38:23.200Z,31.30
2018-01-13T12:40:51.454Z,31.00
2018-01-13T12:43:18.879Z,31.00
2018-01-13T12:45:46.295Z,31.00
2018-01-13T12:48:13.726Z,31.00
2018-01-13T12:50:41.150Z,31.00
2018-01-13T12:53:08.608Z,31.00
2018-01-13T12:55:36.034Z,31.00
2018-01-13T12:58:03.474Z,31.10
2018-01-13T13:00:31.654Z,31.50
2018-01-13T13:02:59.099Z,31.50
2018-01-13T13:05:26.565Z,31.60
2018-01-13T13:07:53.946Z,31.60
2018-01-13T13:10:21.378Z,31.60
2018-01-13T13:12:49.066Z,31.60
2018-01-13T13:15:16.487Z,32.00
2018-01-13T13:17:43.923Z,31.70
2018-01-13T13:20:11.347Z,31.50
2018-01-13T13:22:38.775Z,31.40
2018-01-13T13:25:06.203Z,31.60
2018-01-13T13:27:33.631Z,32.50
2018-01-13T13:30:01.065Z,32.50
2018-01-13T13:32:28.483Z,32.10
2018-01-13T13:34:55.915Z,31.70
2018-01-13T13:37:24.107Z,31.10
2018-01-13T13:39:51.543Z,30.80
2018-01-13T13:42:18.967Z,30.90
2018-01-13T13:44:46.399Z,30.90
2018-01-13T13:47:13.814Z,30.10
2018-01-13T13:49:42.014Z,29.90
2018-01-13T13:52:09.435Z,29.90
2018-01-13T13:54:36.875Z,29.80
2018-01-13T13:57:04.291Z,29.00
2018-01-13T13:59:31.731Z,29.20
2018-01-13T14:01:59.175Z,29.50
2018-01-13T14:04:27.357Z,28.90
2018-01-13T14:06:54.811Z,28.90
2018-01-13T14:09:22.242Z,28.20
2018-01-13T14:11:49.664Z,34.40
2018-01-13T14:14:17.092Z,30.70
2018-01-13T14:16:44.518Z,28.60
2018-01-13T14:19:12.710Z,27.20
2018-01-13T14:21:40.147Z,27.10
2018-01-13T14:24:07.595Z,27.20
2018-01-13T14:26:35.070Z,27.60
2018-01-13T14:29:02.571Z,28.00
2018-01-13T14:31:30.023Z,27.40
2018-01-13T14:33:57.479Z,27.90
2018-01-13T14:36:25.008Z,27.50
2018-01-13T14:38:52.450Z,27.90
2018-01-13T14:41:19.883Z,27.70
2018-01-13T14:43:47.414Z,27.80
2018-01-13T14:46:14.941Z,28.40
2018-01-13T14:48:42.398Z,28.70
2018-01-13T14:51:09.867Z,37.90
2018-01-13T14:53:37.342Z,29.10
2018-01-13T14:56:04.792Z,28.30
2018-01-13T14:58:32.248Z,28.70
2018-01-13T15:00:59.711Z,27.80
2018-01-13T15:03:27.239Z,27.90
2018-01-13T15:05:55.455Z,29.40
2018-01-13T15:08:22.913Z,28.70
2018-01-13T15:10:50.399Z,28.70
2018-01-13T15:13:17.895Z,28.50
2018-01-13T15:15:46.107Z,28.10
2018-01-13T15:18:13.558Z,28.10
2018-01-13T15:20:41.252Z,28.30
2018-01-13T15:23:08.721Z,28.70
2018-01-13T15:25:36.209Z,28.70
2018-01-13T15:28:03.675Z,28.80
2018-01-13T15:30:31.163Z,28.40
2018-01-13T15:32:58.583Z,28.30
2018-01-13T15:35:26.056Z,28.60
2018-01-13T15:37:53.543Z,29.00
2018-01-13T15:40:21.023Z,29.20
2018-01-13T15:42:48.490Z,28.70
2018-01-13T15:45:15.959Z,29.10
2018-01-13T15:47:43.439Z,29.40
2018-01-13T15:50:10.896Z,28.30
2018-01-13T15:52:38.360Z,28.50
2018-01-13T15:55:05.868Z,27.30
2018-01-13T15:57:33.321Z,28.00
2018-01-13T16:00:00.804Z,27.90
2018-01-13T16:02:28.248Z,28.40
2018-01-13T16:04:55.795Z,28.50
2018-01-13T16:07:23.283Z,28.00
2018-01-13T16:09:50.722Z,27.60
2018-01-13T16:12:18.187Z,28.00
2018-01-13T16:14:45.683Z,28.30
2018-01-13T16:17:13.194Z,29.10
2018-01-13T16:19:41.405Z,29.00
2018-01-13T16:22:08.924Z,28.90
2018-01-13T16:24:36.407Z,28.60
2018-01-13T16:27:03.858Z,28.60
2018-01-13T16:29:31.333Z,28.70
2018-01-13T16:31:58.811Z,29.00
2018-01-13T16:34:26.263Z,30.00
2018-01-13T16:36:53.743Z,29.60
2018-01-13T16:39:21.200Z,29.40
2018-01-13T16:41:48.667Z,28.30
2018-01-13T16:44:16.130Z,28.60
2018-01-13T16:46:43.634Z,28.70
2018-01-13T16:49:11.083Z,28.60
2018-01-13T16:51:38.555Z,29.40
2018-01-13T16:54:06.038Z,29.40
2018-01-13T16:56:33.521Z,29.60
2018-01-13T16:59:01.039Z,29.50
2018-01-13T17:01:28.530Z,29.70
2018-01-13T17:03:56.743Z,28.60
2018-01-13T17:06:24.315Z,28.60
2018-01-13T17:08:51.823Z,29.00
2018-01-13T17:11:20.059Z,29.30
2018-01-13T17:13:47.529Z,29.30
2018-01-13T17:16:14.983Z,29.60
2018-01-13T17:18:42.452Z,29.70
2018-01-13T17:21:09.922Z,29.90
2018-01-13T17:23:38.156Z,29.20
2018-01-13T17:26:05.629Z,29.10
2018-01-13T17:28:33.131Z,29.50
2018-01-13T17:31:00.571Z,29.60
2018-01-13T17:33:28.807Z,29.90
2018-01-13T17:35:56.277Z,29.70
2018-01-13T17:38:23.748Z,30.00
2018-01-13T17:40:51.191Z,29.60
2018-01-13T17:43:18.642Z,28.80
2018-01-13T17:45:46.124Z,29.20
2018-01-13T17:48:13.608Z,29.70
2018-01-13T17:50:41.093Z,29.60
2018-01-13T17:53:09.323Z,30.10
2018-01-13T17:55:37.559Z,30.10
2018-01-13T17:58:05.151Z,30.00
2018-01-13T18:00:32.615Z,30.00
2018-01-13T18:03:00.068Z,30.00
2018-01-13T18:05:28.299Z,30.20
2018-01-13T18:07:55.758Z,30.20
2018-01-13T18:10:23.223Z,30.30
2018-01-13T18:12:50.668Z,30.30
2018-01-13T18:15:18.188Z,29.40
2018-01-13T18:17:45.639Z,30.00
2018-01-13T18:20:13.113Z,30.00
2018-01-13T18:22:40.563Z,29.80
2018-01-13T18:25:08.146Z,30.00
2018-01-13T18:27:35.641Z,30.00
2018-01-13T18:30:03.099Z,29.80
2018-01-13T18:32:30.579Z,29.40
2018-01-13T18:34:58.011Z,29.60
2018-01-13T18:37:25.493Z,29.50
2018-01-13T18:39:52.940Z,29.00
2018-01-13T18:42:20.407Z,29.30
2018-01-13T18:44:47.867Z,29.10
2018-01-13T18:47:15.322Z,30.00
2018-01-13T18:49:42.795Z,30.50
2018-01-13T18:52:10.262Z,29.60
2018-01-13T18:54:37.787Z,29.70
2018-01-13T18:57:05.287Z,29.50
2018-01-13T18:59:32.739Z,29.60
2018-01-13T19:02:00.195Z,29.60
2018-01-13T19:04:27.653Z,29.60
2018-01-13T19:06:56.027Z,29.70
2018-01-13T19:09:23.486Z,30.00
2018-01-13T19:11:50.931Z,30.00
2018-01-13T19:14:18.427Z,30.00
2018-01-13T19:16:45.887Z,30.40
2018-01-13T19:19:13.388Z,30.00
2018-01-13T19:21:40.875Z,30.00
2018-01-13T19:24:08.389Z,30.50
2018-01-13T19:26:35.966Z,30.30
2018-01-13T19:29:03.485Z,30.00
2018-01-13T19:31:30.970Z,30.30
2018-01-13T19:33:58.508Z,30.50
2018-01-13T19:36:25.952Z,30.40
2018-01-13T19:38:53.459Z,30.00
2018-01-13T19:41:20.938Z,30.00
2018-01-13T19:43:48.409Z,29.80
2018-01-13T19:46:15.846Z,30.00
2018-01-13T19:48:43.307Z,30.00
2018-01-13T19:51:10.779Z,30.00
2018-01-13T19:53:39.151Z,30.00
2018-01-13T19:56:06.641Z,30.00
2018-01-13T19:58:34.067Z,30.00
2018-01-13T20:01:01.560Z,30.00
2018-01-13T20:03:28.999Z,30.00
2018-01-13T20:05:57.268Z,30.60
2018-01-13T20:08:24.724Z,30.50
2018-01-13T20:10:52.190Z,30.40
2018-01-13T20:13:19.627Z,30.90
2018-01-13T20:15:47.088Z,30.50
2018-01-13T20:18:14.543Z,30.20
2018-01-13T20:20:42.000Z,31.10
2018-01-13T20:23:09.455Z,30.50
2018-01-13T20:25:36.931Z,31.10
2018-01-13T20:28:04.371Z,30.60
2018-01-13T20:30:31.817Z,30.50
2018-01-13T20:32:59.281Z,30.40
2018-01-13T20:35:26.731Z,30.50
2018-01-13T20:37:54.266Z,31.20
2018-01-13T20:40:21.724Z,31.00
2018-01-13T20:42:49.206Z,31.00
2018-01-13T20:45:16.685Z,31.50
2018-01-13T20:47:44.159Z,31.60
2018-01-13T20:50:12.412Z,31.90
2018-01-13T20:52:39.906Z,31.90
2018-01-13T20:55:07.367Z,32.00
2018-01-13T20:57:34.836Z,32.10
2018-01-13T21:00:02.483Z,32.30
2018-01-13T21:02:32.853Z,32.30
2018-01-13T21:05:00.297Z,32.30
2018-01-13T21:07:27.751Z,33.10
2018-01-13T21:09:55.174Z,32.40
2018-01-13T21:12:22.620Z,32.00
2018-01-13T21:14:50.053Z,31.80
2018-01-13T21:17:17.508Z,31.80
2018-01-13T21:19:45.716Z,31.60
2018-01-13T21:22:13.175Z,31.60
2018-01-13T21:24:40.695Z,31.60
2018-01-13T21:27:08.139Z,31.40
2018-01-13T21:29:35.562Z,31.50
2018-01-13T21:32:03.003Z,31.40
2018-01-13T21:34:30.455Z,31.40
2018-01-13T21:36:57.893Z,31.40
2018-01-13T21:39:25.363Z,31.40
2018-01-13T21:41:52.799Z,31.10
2018-01-13T21:44:20.271Z,31.20
2018-01-13T21:46:47.705Z,31.20
2018-01-13T21:49:15.915Z,31.10
2018-01-13T21:51:43.352Z,31.00
2018-01-13T21:54:10.846Z,31.10
2018-01-13T21:56:38.302Z,31.50
2018-01-13T21:59:05.782Z,31.60
2018-01-13T22:01:33.246Z,31.40
2018-01-13T22:04:00.711Z,31.20
2018-01-13T22:06:28.975Z,31.30
2018-01-13T22:08:56.471Z,31.30
2018-01-13T22:11:23.931Z,31.20
2018-01-13T22:13:51.455Z,31.50
2018-01-13T22:16:18.916Z,30.60
2018-01-13T22:18:46.382Z,31.10
2018-01-13T22:21:13.838Z,31.40
2018-01-13T22:23:41.276Z,31.20
2018-01-13T22:26:08.762Z,31.00
2018-01-13T22:28:36.218Z,30.10
2018-01-13T22:31:03.735Z,30.70
2018-01-13T22:33:31.186Z,30.80
2018-01-13T22:35:58.680Z,30.80
2018-01-13T22:38:26.959Z,31.10
2018-01-13T22:40:54.444Z,31.10
2018-01-13T22:43:21.901Z,31.10
2018-01-13T22:45:49.419Z,31.50
2018-01-13T22:48:17.667Z,31.20
2018-01-13T22:50:45.138Z,31.20
2018-01-13T22:53:12.606Z,31.40
2018-01-13T22:55:40.219Z,31.10
2018-01-13T22:58:07.679Z,31.20
2018-01-13T23:00:54.799Z,31.20
2018-01-13T23:03:22.284Z,31.40
2018-01-13T23:05:49.811Z,31.40
2018-01-13T23:08:17.275Z,31.50
2018-01-13T23:10:44.764Z,31.50
2018-01-13T23:13:12.245Z,31.40
2018-01-13T23:15:39.735Z,31.10
2018-01-13T23:18:07.209Z,30.90
2018-01-13T23:20:34.663Z,31.00
2018-01-13T23:23:02.144Z,31.40
2018-01-13T23:25:29.622Z,31.40
2018-01-13T23:27:57.106Z,31.60
2018-01-13T23:30:24.577Z,31.60
2018-01-13T23:32:52.075Z,31.90
2018-01-13T23:35:19.530Z,31.80
2018-01-13T23:37:47.786Z,31.50
2018-01-13T23:40:15.240Z,31.50
2018-01-13T23:42:42.759Z,31.50
2018-01-13T23:45:10.251Z,31.40
2018-01-13T23:47:37.739Z,31.50
2018-01-13T23:50:05.214Z,31.40
2018-01-13T23:52:32.692Z,31.20
2018-01-13T23:55:00.166Z,30.90
2018-01-13T23:57:27.634Z,31.30
2018-01-13T23:59:55.107Z,31.40
